Terminal Aerodrome Forecast
Issued by NWS Charleston, WV

Current Version | Previous Version | Graphics & Text | Print | Product List | Glossary On
Versions: 1 2 3 4 5 6 7 8 9 10 11 12 13 14 15 16 17 18 19 20 21 22 23 24 25
000
FTUS41 KRLX 301733
TAFBKW
TAF
KBKW 301733Z 3018/0118 16011G17KT P6SM OVC100
     FM301900 15010G17KT 5SM SHRA OVC029
     FM302100 14011G19KT 4SM -SHRA OVC009
     FM010100 15010G18KT 6SM -SHRA OVC010
     FM010600 15011G19KT 5SM -SHRA OVC012
     FM011300 19008KT P6SM -SHRA OVC021
     FM011600 22008G15KT 6SM -SHRA VCTS BKN030CB=

USA.gov is the U.S. government's official web portal to all federal, state and local government web resources and services.